sensor_id;sensor_type;location;lat;lon;timestamp;P1;durP1;ratioP1;P2;durP2;ratioP2
60086;SDS011;45960;53.630;55.972;2024-01-30T00:00:35;94.55;;;28.48;;
60086;SDS011;45960;53.630;55.972;2024-01-30T00:01:36;92.68;;;28.38;;
60086;SDS011;45960;53.630;55.972;2024-01-30T00:02:37;93.43;;;27.55;;
60086;SDS011;45960;53.630;55.972;2024-01-30T00:03:38;101.47;;;28.85;;
60086;SDS011;45960;53.630;55.972;2024-01-30T00:04:39;97.90;;;27.35;;
60086;SDS011;45960;53.630;55.972;2024-01-30T00:05:40;95.43;;;27.60;;
60086;SDS011;45960;53.630;55.972;2024-01-30T00:06:41;94.38;;;27.83;;
60086;SDS011;45960;53.630;55.972;2024-01-30T00:07:42;88.95;;;26.65;;
60086;SDS011;45960;53.630;55.972;2024-01-30T00:08:43;112.55;;;28.52;;
60086;SDS011;45960;53.630;55.972;2024-01-30T00:09:47;95.05;;;27.33;;
60086;SDS011;45960;53.630;55.972;2024-01-30T00:10:50;99.38;;;27.30;;
60086;SDS011;45960;53.630;55.972;2024-01-30T00:11:51;101.68;;;27.52;;
60086;SDS011;45960;53.630;55.972;2024-01-30T00:12:52;110.07;;;29.23;;
60086;SDS011;45960;53.630;55.972;2024-01-30T00:13:53;99.78;;;27.80;;
60086;SDS011;45960;53.630;55.972;2024-01-30T00:14:56;92.00;;;26.35;;
60086;SDS011;45960;53.630;55.972;2024-01-30T00:15:58;98.07;;;27.40;;
60086;SDS011;45960;53.630;55.972;2024-01-30T00:16:59;95.85;;;26.02;;
60086;SDS011;45960;53.630;55.972;2024-01-30T00:18:00;97.35;;;26.88;;
60086;SDS011;45960;53.630;55.972;2024-01-30T00:19:01;97.05;;;26.00;;
60086;SDS011;45960;53.630;55.972;2024-01-30T00:20:03;85.88;;;27.45;;
60086;SDS011;45960;53.630;55.972;2024-01-30T00:21:06;91.35;;;27.33;;
60086;SDS011;45960;53.630;55.972;2024-01-30T00:22:07;93.32;;;27.35;;
60086;SDS011;45960;53.630;55.972;2024-01-30T00:23:08;100.20;;;28.88;;
60086;SDS011;45960;53.630;55.972;2024-01-30T00:24:09;93.03;;;27.08;;
60086;SDS011;45960;53.630;55.972;2024-01-30T00:25:10;98.07;;;25.52;;
60086;SDS011;45960;53.630;55.972;2024-01-30T00:26:11;86.78;;;25.50;;
60086;SDS011;45960;53.630;55.972;2024-01-30T00:27:12;85.25;;;24.45;;
60086;SDS011;45960;53.630;55.972;2024-01-30T00:28:13;97.10;;;28.33;;
60086;SDS011;45960;53.630;55.972;2024-01-30T00:29:14;99.13;;;29.33;;
60086;SDS011;45960;53.630;55.972;2024-01-30T00:30:20;93.43;;;26.55;;
60086;SDS011;45960;53.630;55.972;2024-01-30T00:31:21;94.13;;;25.00;;
60086;SDS011;45960;53.630;55.972;2024-01-30T00:32:22;88.57;;;24.05;;
60086;SDS011;45960;53.630;55.972;2024-01-30T00:33:24;75.75;;;24.67;;
60086;SDS011;45960;53.630;55.972;2024-01-30T00:34:25;86.50;;;25.88;;
60086;SDS011;45960;53.630;55.972;2024-01-30T00:35:25;91.00;;;25.15;;
60086;SDS011;45960;53.630;55.972;2024-01-30T00:36:27;85.60;;;26.13;;
60086;SDS011;45960;53.630;55.972;2024-01-30T00:37:30;85.82;;;26.45;;
60086;SDS011;45960;53.630;55.972;2024-01-30T00:38:32;88.55;;;25.98;;
60086;SDS011;45960;53.630;55.972;2024-01-30T00:39:33;88.28;;;25.52;;
60086;SDS011;45960;53.630;55.972;2024-01-30T00:40:34;89.95;;;25.77;;
60086;SDS011;45960;53.630;55.972;2024-01-30T00:41:35;86.97;;;26.00;;
60086;SDS011;45960;53.630;55.972;2024-01-30T00:42:36;84.22;;;26.95;;
60086;SDS011;45960;53.630;55.972;2024-01-30T00:43:37;78.25;;;24.45;;
60086;SDS011;45960;53.630;55.972;2024-01-30T00:44:38;100.00;;;28.58;;
60086;SDS011;45960;53.630;55.972;2024-01-30T00:45:39;90.60;;;24.30;;
60086;SDS011;45960;53.630;55.972;2024-01-30T00:46:40;88.65;;;25.70;;
60086;SDS011;45960;53.630;55.972;2024-01-30T00:47:41;83.40;;;26.83;;
60086;SDS011;45960;53.630;55.972;2024-01-30T00:48:43;88.40;;;25.08;;
60086;SDS011;45960;53.630;55.972;2024-01-30T00:49:44;92.43;;;26.75;;
60086;SDS011;45960;53.630;55.972;2024-01-30T00:50:45;87.15;;;24.52;;
60086;SDS011;45960;53.630;55.972;2024-01-30T00:51:46;87.78;;;26.20;;
60086;SDS011;45960;53.630;55.972;2024-01-30T00:52:47;89.55;;;25.58;;
60086;SDS011;45960;53.630;55.972;2024-01-30T00:53:48;91.43;;;27.10;;
60086;SDS011;45960;53.630;55.972;2024-01-30T00:54:49;77.90;;;24.70;;
60086;SDS011;45960;53.630;55.972;2024-01-30T00:55:49;83.07;;;24.23;;
60086;SDS011;45960;53.630;55.972;2024-01-30T00:56:50;80.32;;;25.02;;
60086;SDS011;45960;53.630;55.972;2024-01-30T00:57:51;85.72;;;23.75;;
60086;SDS011;45960;53.630;55.972;2024-01-30T00:58:52;84.10;;;24.20;;
60086;SDS011;45960;53.630;55.972;2024-01-30T00:59:53;84.88;;;24.85;;
60086;SDS011;45960;53.630;55.972;2024-01-30T01:00:54;75.35;;;23.75;;
60086;SDS011;45960;53.630;55.972;2024-01-30T01:01:55;81.03;;;23.33;;
60086;SDS011;45960;53.630;55.972;2024-01-30T01:02:56;90.03;;;24.42;;
60086;SDS011;45960;53.630;55.972;2024-01-30T01:03:57;81.20;;;23.50;;
60086;SDS011;45960;53.630;55.972;2024-01-30T01:04:58;78.13;;;23.58;;
60086;SDS011;45960;53.630;55.972;2024-01-30T01:05:59;74.18;;;23.35;;
60086;SDS011;45960;53.630;55.972;2024-01-30T01:07:00;80.90;;;25.33;;
60086;SDS011;45960;53.630;55.972;2024-01-30T01:08:01;77.13;;;20.58;;
60086;SDS011;45960;53.630;55.972;2024-01-30T01:09:02;74.85;;;24.20;;
60086;SDS011;45960;53.630;55.972;2024-01-30T01:10:04;72.93;;;22.80;;
60086;SDS011;45960;53.630;55.972;2024-01-30T01:11:05;69.70;;;22.15;;
60086;SDS011;45960;53.630;55.972;2024-01-30T01:12:06;83.35;;;22.77;;
60086;SDS011;45960;53.630;55.972;2024-01-30T01:13:07;69.95;;;21.38;;
60086;SDS011;45960;53.630;55.972;2024-01-30T01:14:08;69.60;;;22.80;;
60086;SDS011;45960;53.630;55.972;2024-01-30T01:15:10;77.95;;;21.88;;
60086;SDS011;45960;53.630;55.972;2024-01-30T01:16:11;84.43;;;26.15;;
60086;SDS011;45960;53.630;55.972;2024-01-30T01:17:12;79.93;;;23.92;;
60086;SDS011;45960;53.630;55.972;2024-01-30T01:18:13;68.05;;;21.70;;
60086;SDS011;45960;53.630;55.972;2024-01-30T01:19:14;61.97;;;21.50;;
60086;SDS011;45960;53.630;55.972;2024-01-30T01:20:15;78.43;;;23.20;;
60086;SDS011;45960;53.630;55.972;2024-01-30T01:21:16;85.07;;;21.40;;
60086;SDS011;45960;53.630;55.972;2024-01-30T01:22:17;72.10;;;21.35;;
60086;SDS011;45960;53.630;55.972;2024-01-30T01:23:19;72.50;;;22.80;;
60086;SDS011;45960;53.630;55.972;2024-01-30T01:24:20;63.53;;;22.83;;
60086;SDS011;45960;53.630;55.972;2024-01-30T01:25:21;73.60;;;23.02;;
60086;SDS011;45960;53.630;55.972;2024-01-30T01:26:22;62.67;;;19.40;;
60086;SDS011;45960;53.630;55.972;2024-01-30T01:27:23;60.10;;;19.58;;
60086;SDS011;45960;53.630;55.972;2024-01-30T01:28:24;68.55;;;22.95;;
60086;SDS011;45960;53.630;55.972;2024-01-30T01:29:25;62.08;;;18.17;;
60086;SDS011;45960;53.630;55.972;2024-01-30T01:30:29;66.43;;;21.02;;
60086;SDS011;45960;53.630;55.972;2024-01-30T01:31:31;62.50;;;21.20;;
60086;SDS011;45960;53.630;55.972;2024-01-30T01:32:31;64.57;;;21.30;;
60086;SDS011;45960;53.630;55.972;2024-01-30T01:33:32;60.55;;;19.83;;
60086;SDS011;45960;53.630;55.972;2024-01-30T01:34:34;61.50;;;20.63;;
60086;SDS011;45960;53.630;55.972;2024-01-30T01:35:34;65.82;;;20.48;;
60086;SDS011;45960;53.630;55.972;2024-01-30T01:36:35;69.68;;;22.27;;
60086;SDS011;45960;53.630;55.972;2024-01-30T01:37:36;72.63;;;21.40;;
60086;SDS011;45960;53.630;55.972;2024-01-30T01:38:37;69.93;;;21.20;;
60086;SDS011;45960;53.630;55.972;2024-01-30T01:39:38;63.03;;;19.63;;
60086;SDS011;45960;53.630;55.972;2024-01-30T01:40:39;69.63;;;21.98;;
60086;SDS011;45960;53.630;55.972;2024-01-30T01:41:41;69.20;;;22.42;;
60086;SDS011;45960;53.630;55.972;2024-01-30T01:42:42;59.05;;;20.70;;
60086;SDS011;45960;53.630;55.972;2024-01-30T01:43:43;60.80;;;19.52;;
60086;SDS011;45960;53.630;55.972;2024-01-30T01:44:44;66.63;;;20.55;;
60086;SDS011;45960;53.630;55.972;2024-01-30T01:45:45;73.25;;;21.77;;
60086;SDS011;45960;53.630;55.972;2024-01-30T01:46:46;61.35;;;19.48;;
60086;SDS011;45960;53.630;55.972;2024-01-30T01:47:50;63.08;;;21.65;;
60086;SDS011;45960;53.630;55.972;2024-01-30T01:48:51;71.88;;;22.25;;
60086;SDS011;45960;53.630;55.972;2024-01-30T01:49:54;63.55;;;21.73;;
60086;SDS011;45960;53.630;55.972;2024-01-30T01:50:55;73.50;;;21.63;;
60086;SDS011;45960;53.630;55.972;2024-01-30T01:51:56;57.08;;;18.45;;
60086;SDS011;45960;53.630;55.972;2024-01-30T01:52:58;64.72;;;21.35;;
60086;SDS011;45960;53.630;55.972;2024-01-30T01:54:00;68.13;;;19.50;;
60086;SDS011;45960;53.630;55.972;2024-01-30T01:55:08;69.97;;;20.75;;
60086;SDS011;45960;53.630;55.972;2024-01-30T01:56:12;77.03;;;22.77;;
60086;SDS011;45960;53.630;55.972;2024-01-30T01:57:14;60.78;;;19.58;;
60086;SDS011;45960;53.630;55.972;2024-01-30T01:58:15;60.40;;;19.17;;
60086;SDS011;45960;53.630;55.972;2024-01-30T01:59:17;71.32;;;19.90;;
60086;SDS011;45960;53.630;55.972;2024-01-30T02:00:18;61.53;;;21.50;;
60086;SDS011;45960;53.630;55.972;2024-01-30T02:01:21;65.85;;;21.25;;
60086;SDS011;45960;53.630;55.972;2024-01-30T02:02:24;62.20;;;22.00;;
60086;SDS011;45960;53.630;55.972;2024-01-30T02:03:27;61.97;;;20.25;;
60086;SDS011;45960;53.630;55.972;2024-01-30T02:04:28;54.13;;;19.92;;
60086;SDS011;45960;53.630;55.972;2024-01-30T02:05:29;66.47;;;20.02;;
60086;SDS011;45960;53.630;55.972;2024-01-30T02:06:31;74.60;;;23.58;;
60086;SDS011;45960;53.630;55.972;2024-01-30T02:07:32;52.47;;;18.98;;
60086;SDS011;45960;53.630;55.972;2024-01-30T02:08:34;69.60;;;22.55;;
60086;SDS011;45960;53.630;55.972;2024-01-30T02:09:36;65.35;;;22.73;;
60086;SDS011;45960;53.630;55.972;2024-01-30T02:10:37;72.93;;;21.42;;
60086;SDS011;45960;53.630;55.972;2024-01-30T02:11:38;53.72;;;18.77;;
60086;SDS011;45960;53.630;55.972;2024-01-30T02:12:42;57.40;;;19.52;;
60086;SDS011;45960;53.630;55.972;2024-01-30T02:13:43;61.47;;;20.77;;
60086;SDS011;45960;53.630;55.972;2024-01-30T02:14:45;70.78;;;21.70;;
60086;SDS011;45960;53.630;55.972;2024-01-30T02:15:50;60.50;;;20.88;;
60086;SDS011;45960;53.630;55.972;2024-01-30T02:16:52;58.67;;;21.73;;
60086;SDS011;45960;53.630;55.972;2024-01-30T02:17:53;63.40;;;22.60;;
60086;SDS011;45960;53.630;55.972;2024-01-30T02:20:15;57.47;;;18.33;;
60086;SDS011;45960;53.630;55.972;2024-01-30T02:21:16;57.67;;;19.70;;
60086;SDS011;45960;53.630;55.972;2024-01-30T02:22:19;57.33;;;20.95;;
60086;SDS011;45960;53.630;55.972;2024-01-30T02:23:20;52.92;;;18.23;;
60086;SDS011;45960;53.630;55.972;2024-01-30T02:24:25;54.45;;;17.60;;
60086;SDS011;45960;53.630;55.972;2024-01-30T02:25:30;61.47;;;21.40;;
60086;SDS011;45960;53.630;55.972;2024-01-30T02:26:34;66.07;;;21.40;;
60086;SDS011;45960;53.630;55.972;2024-01-30T02:27:35;68.18;;;20.75;;
60086;SDS011;45960;53.630;55.972;2024-01-30T02:28:36;56.55;;;20.60;;
60086;SDS011;45960;53.630;55.972;2024-01-30T02:29:37;50.47;;;19.13;;
60086;SDS011;45960;53.630;55.972;2024-01-30T02:30:39;56.97;;;20.02;;
60086;SDS011;45960;53.630;55.972;2024-01-30T02:31:40;52.70;;;19.75;;
60086;SDS011;45960;53.630;55.972;2024-01-30T02:32:41;59.70;;;19.52;;
60086;SDS011;45960;53.630;55.972;2024-01-30T02:33:42;66.68;;;21.83;;
60086;SDS011;45960;53.630;55.972;2024-01-30T02:34:43;55.50;;;20.38;;
60086;SDS011;45960;53.630;55.972;2024-01-30T02:35:44;54.63;;;20.02;;
60086;SDS011;45960;53.630;55.972;2024-01-30T02:36:45;60.83;;;20.85;;
60086;SDS011;45960;53.630;55.972;2024-01-30T02:37:46;65.70;;;21.63;;
60086;SDS011;45960;53.630;55.972;2024-01-30T02:38:47;60.17;;;22.13;;
60086;SDS011;45960;53.630;55.972;2024-01-30T02:39:48;69.47;;;23.73;;
60086;SDS011;45960;53.630;55.972;2024-01-30T02:40:49;62.95;;;20.52;;
60086;SDS011;45960;53.630;55.972;2024-01-30T02:41:50;54.55;;;19.15;;
60086;SDS011;45960;53.630;55.972;2024-01-30T02:42:51;60.05;;;21.08;;
60086;SDS011;45960;53.630;55.972;2024-01-30T02:43:52;58.13;;;21.73;;
60086;SDS011;45960;53.630;55.972;2024-01-30T02:44:53;65.63;;;21.70;;
60086;SDS011;45960;53.630;55.972;2024-01-30T02:45:54;66.95;;;24.25;;
60086;SDS011;45960;53.630;55.972;2024-01-30T02:46:55;63.13;;;22.85;;
60086;SDS011;45960;53.630;55.972;2024-01-30T02:47:57;57.45;;;20.83;;
60086;SDS011;45960;53.630;55.972;2024-01-30T02:48:58;59.90;;;21.63;;
60086;SDS011;45960;53.630;55.972;2024-01-30T02:49:59;62.38;;;21.58;;
60086;SDS011;45960;53.630;55.972;2024-01-30T02:51:00;58.53;;;22.17;;
60086;SDS011;45960;53.630;55.972;2024-01-30T02:52:01;65.15;;;22.55;;
60086;SDS011;45960;53.630;55.972;2024-01-30T02:53:02;59.45;;;20.23;;
60086;SDS011;45960;53.630;55.972;2024-01-30T02:54:03;62.95;;;21.85;;
60086;SDS011;45960;53.630;55.972;2024-01-30T02:55:04;55.83;;;20.00;;
60086;SDS011;45960;53.630;55.972;2024-01-30T02:56:05;57.47;;;20.88;;
60086;SDS011;45960;53.630;55.972;2024-01-30T02:57:10;59.03;;;19.63;;
60086;SDS011;45960;53.630;55.972;2024-01-30T02:58:11;67.13;;;22.58;;
60086;SDS011;45960;53.630;55.972;2024-01-30T02:59:12;68.40;;;24.20;;
60086;SDS011;45960;53.630;55.972;2024-01-30T03:00:13;62.35;;;22.15;;
60086;SDS011;45960;53.630;55.972;2024-01-30T03:01:14;68.65;;;20.90;;
60086;SDS011;45960;53.630;55.972;2024-01-30T03:02:15;62.95;;;21.55;;
60086;SDS011;45960;53.630;55.972;2024-01-30T03:03:16;59.35;;;22.90;;
60086;SDS011;45960;53.630;55.972;2024-01-30T03:04:17;56.72;;;23.00;;
60086;SDS011;45960;53.630;55.972;2024-01-30T03:05:18;72.40;;;22.70;;
60086;SDS011;45960;53.630;55.972;2024-01-30T03:06:19;62.55;;;21.02;;
60086;SDS011;45960;53.630;55.972;2024-01-30T03:07:20;62.67;;;21.20;;
60086;SDS011;45960;53.630;55.972;2024-01-30T03:08:21;59.40;;;22.73;;
60086;SDS011;45960;53.630;55.972;2024-01-30T03:09:22;59.03;;;22.02;;
60086;SDS011;45960;53.630;55.972;2024-01-30T03:10:23;69.68;;;26.00;;
60086;SDS011;45960;53.630;55.972;2024-01-30T03:11:24;63.15;;;20.35;;
60086;SDS011;45960;53.630;55.972;2024-01-30T03:12:25;69.45;;;24.10;;
60086;SDS011;45960;53.630;55.972;2024-01-30T03:13:27;54.95;;;23.15;;
60086;SDS011;45960;53.630;55.972;2024-01-30T03:14:29;58.33;;;22.55;;
60086;SDS011;45960;53.630;55.972;2024-01-30T03:15:33;60.65;;;23.17;;
60086;SDS011;45960;53.630;55.972;2024-01-30T03:16:34;61.63;;;23.42;;
60086;SDS011;45960;53.630;55.972;2024-01-30T03:17:35;60.53;;;21.50;;
60086;SDS011;45960;53.630;55.972;2024-01-30T03:18:37;64.40;;;24.27;;
60086;SDS011;45960;53.630;55.972;2024-01-30T03:19:38;65.40;;;24.05;;
60086;SDS011;45960;53.630;55.972;2024-01-30T03:20:39;55.17;;;22.33;;
60086;SDS011;45960;53.630;55.972;2024-01-30T03:21:40;55.40;;;22.98;;
60086;SDS011;45960;53.630;55.972;2024-01-30T03:22:41;70.32;;;26.25;;
60086;SDS011;45960;53.630;55.972;2024-01-30T03:23:42;67.55;;;23.08;;
60086;SDS011;45960;53.630;55.972;2024-01-30T03:24:43;61.90;;;24.00;;
60086;SDS011;45960;53.630;55.972;2024-01-30T03:25:44;62.67;;;24.90;;
60086;SDS011;45960;53.630;55.972;2024-01-30T03:26:45;55.20;;;20.45;;
60086;SDS011;45960;53.630;55.972;2024-01-30T03:27:46;62.03;;;24.42;;
60086;SDS011;45960;53.630;55.972;2024-01-30T03:28:47;54.38;;;24.98;;
60086;SDS011;45960;53.630;55.972;2024-01-30T03:29:48;70.45;;;26.30;;
60086;SDS011;45960;53.630;55.972;2024-01-30T03:30:49;58.97;;;24.13;;
60086;SDS011;45960;53.630;55.972;2024-01-30T03:31:50;69.03;;;26.05;;
60086;SDS011;45960;53.630;55.972;2024-01-30T03:32:51;62.70;;;25.35;;
60086;SDS011;45960;53.630;55.972;2024-01-30T03:33:52;70.50;;;28.00;;
60086;SDS011;45960;53.630;55.972;2024-01-30T03:34:53;73.45;;;28.27;;
60086;SDS011;45960;53.630;55.972;2024-01-30T03:35:54;67.05;;;25.33;;
60086;SDS011;45960;53.630;55.972;2024-01-30T03:36:56;59.28;;;23.65;;
60086;SDS011;45960;53.630;55.972;2024-01-30T03:37:57;62.15;;;24.50;;
60086;SDS011;45960;53.630;55.972;2024-01-30T03:38:58;71.90;;;26.27;;
60086;SDS011;45960;53.630;55.972;2024-01-30T03:39:59;68.78;;;26.80;;
60086;SDS011;45960;53.630;55.972;2024-01-30T03:41:00;70.80;;;28.08;;
60086;SDS011;45960;53.630;55.972;2024-01-30T03:42:02;64.30;;;26.13;;
60086;SDS011;45960;53.630;55.972;2024-01-30T03:43:03;73.20;;;27.00;;
60086;SDS011;45960;53.630;55.972;2024-01-30T03:44:05;59.60;;;24.70;;
60086;SDS011;45960;53.630;55.972;2024-01-30T03:45:06;62.70;;;25.92;;
60086;SDS011;45960;53.630;55.972;2024-01-30T03:46:08;56.38;;;23.73;;
60086;SDS011;45960;53.630;55.972;2024-01-30T03:47:09;69.78;;;27.35;;
60086;SDS011;45960;53.630;55.972;2024-01-30T03:48:10;62.88;;;24.25;;
60086;SDS011;45960;53.630;55.972;2024-01-30T03:49:11;69.45;;;28.80;;
60086;SDS011;45960;53.630;55.972;2024-01-30T03:50:12;68.45;;;24.52;;
60086;SDS011;45960;53.630;55.972;2024-01-30T03:51:13;71.72;;;24.52;;
60086;SDS011;45960;53.630;55.972;2024-01-30T03:52:16;69.43;;;25.38;;
60086;SDS011;45960;53.630;55.972;2024-01-30T03:53:17;71.65;;;26.20;;
60086;SDS011;45960;53.630;55.972;2024-01-30T03:54:18;61.55;;;26.25;;
60086;SDS011;45960;53.630;55.972;2024-01-30T03:55:19;67.38;;;26.80;;
60086;SDS011;45960;53.630;55.972;2024-01-30T03:56:20;65.78;;;26.10;;
60086;SDS011;45960;53.630;55.972;2024-01-30T03:57:21;71.20;;;25.17;;
60086;SDS011;45960;53.630;55.972;2024-01-30T03:58:22;56.90;;;24.23;;
60086;SDS011;45960;53.630;55.972;2024-01-30T03:59:23;65.90;;;27.08;;
60086;SDS011;45960;53.630;55.972;2024-01-30T04:00:24;66.05;;;25.95;;
60086;SDS011;45960;53.630;55.972;2024-01-30T04:01:25;63.50;;;25.65;;
60086;SDS011;45960;53.630;55.972;2024-01-30T04:02:26;60.08;;;24.73;;
60086;SDS011;45960;53.630;55.972;2024-01-30T04:03:27;59.80;;;23.85;;
60086;SDS011;45960;53.630;55.972;2024-01-30T04:04:28;65.70;;;25.63;;
60086;SDS011;45960;53.630;55.972;2024-01-30T04:05:29;77.07;;;28.90;;
60086;SDS011;45960;53.630;55.972;2024-01-30T04:06:30;69.55;;;27.77;;
60086;SDS011;45960;53.630;55.972;2024-01-30T04:07:31;65.88;;;25.08;;
60086;SDS011;45960;53.630;55.972;2024-01-30T04:08:32;66.40;;;26.10;;
60086;SDS011;45960;53.630;55.972;2024-01-30T04:09:33;62.75;;;24.85;;
60086;SDS011;45960;53.630;55.972;2024-01-30T04:10:34;74.70;;;30.88;;
60086;SDS011;45960;53.630;55.972;2024-01-30T04:11:35;62.53;;;25.23;;
60086;SDS011;45960;53.630;55.972;2024-01-30T04:12:36;68.10;;;25.58;;
60086;SDS011;45960;53.630;55.972;2024-01-30T04:13:37;66.93;;;25.20;;
60086;SDS011;45960;53.630;55.972;2024-01-30T04:14:38;62.53;;;25.00;;
60086;SDS011;45960;53.630;55.972;2024-01-30T04:15:39;68.57;;;26.95;;
60086;SDS011;45960;53.630;55.972;2024-01-30T04:16:41;70.43;;;26.15;;
60086;SDS011;45960;53.630;55.972;2024-01-30T04:17:41;58.83;;;23.40;;
60086;SDS011;45960;53.630;55.972;2024-01-30T04:18:42;70.28;;;26.83;;
60086;SDS011;45960;53.630;55.972;2024-01-30T04:19:43;64.97;;;25.25;;
60086;SDS011;45960;53.630;55.972;2024-01-30T04:20:44;71.00;;;26.33;;
60086;SDS011;45960;53.630;55.972;2024-01-30T04:21:45;67.72;;;25.98;;
60086;SDS011;45960;53.630;55.972;2024-01-30T04:22:46;74.05;;;28.77;;
60086;SDS011;45960;53.630;55.972;2024-01-30T04:23:48;61.95;;;24.30;;
60086;SDS011;45960;53.630;55.972;2024-01-30T04:24:49;67.82;;;27.17;;
60086;SDS011;45960;53.630;55.972;2024-01-30T04:25:50;69.78;;;25.92;;
60086;SDS011;45960;53.630;55.972;2024-01-30T04:26:51;69.25;;;27.70;;
60086;SDS011;45960;53.630;55.972;2024-01-30T04:27:52;71.45;;;29.40;;
60086;SDS011;45960;53.630;55.972;2024-01-30T04:28:53;73.45;;;28.20;;
60086;SDS011;45960;53.630;55.972;2024-01-30T04:29:54;66.53;;;27.17;;
60086;SDS011;45960;53.630;55.972;2024-01-30T04:30:55;78.30;;;27.73;;
60086;SDS011;45960;53.630;55.972;2024-01-30T04:31:56;79.72;;;27.58;;
60086;SDS011;45960;53.630;55.972;2024-01-30T04:32:57;67.55;;;24.88;;
60086;SDS011;45960;53.630;55.972;2024-01-30T04:33:58;70.32;;;25.30;;
60086;SDS011;45960;53.630;55.972;2024-01-30T04:34:59;74.07;;;27.83;;
60086;SDS011;45960;53.630;55.972;2024-01-30T04:36:00;68.85;;;25.40;;
60086;SDS011;45960;53.630;55.972;2024-01-30T04:37:01;71.18;;;26.75;;
60086;SDS011;45960;53.630;55.972;2024-01-30T04:38:02;64.57;;;26.58;;
60086;SDS011;45960;53.630;55.972;2024-01-30T04:39:04;71.07;;;27.58;;
60086;SDS011;45960;53.630;55.972;2024-01-30T04:40:05;73.70;;;25.83;;
60086;SDS011;45960;53.630;55.972;2024-01-30T04:41:06;68.15;;;25.92;;
60086;SDS011;45960;53.630;55.972;2024-01-30T04:42:07;69.78;;;29.58;;
60086;SDS011;45960;53.630;55.972;2024-01-30T04:43:08;77.78;;;27.73;;
60086;SDS011;45960;53.630;55.972;2024-01-30T04:44:09;74.68;;;27.90;;
60086;SDS011;45960;53.630;55.972;2024-01-30T04:45:11;62.38;;;26.35;;
60086;SDS011;45960;53.630;55.972;2024-01-30T04:46:13;64.30;;;26.20;;
60086;SDS011;45960;53.630;55.972;2024-01-30T04:47:14;74.05;;;28.88;;
60086;SDS011;45960;53.630;55.972;2024-01-30T04:48:15;69.18;;;29.10;;
60086;SDS011;45960;53.630;55.972;2024-01-30T04:49:16;75.40;;;28.52;;
60086;SDS011;45960;53.630;55.972;2024-01-30T04:50:17;69.32;;;27.73;;
60086;SDS011;45960;53.630;55.972;2024-01-30T04:51:19;68.65;;;27.42;;
60086;SDS011;45960;53.630;55.972;2024-01-30T04:52:20;74.22;;;29.00;;
60086;SDS011;45960;53.630;55.972;2024-01-30T04:53:21;78.90;;;30.98;;
60086;SDS011;45960;53.630;55.972;2024-01-30T04:54:22;70.45;;;29.45;;
60086;SDS011;45960;53.630;55.972;2024-01-30T04:55:23;78.63;;;27.80;;
60086;SDS011;45960;53.630;55.972;2024-01-30T04:56:24;78.05;;;28.73;;
60086;SDS011;45960;53.630;55.972;2024-01-30T04:57:25;72.45;;;27.70;;
60086;SDS011;45960;53.630;55.972;2024-01-30T04:58:26;77.25;;;28.73;;
60086;SDS011;45960;53.630;55.972;2024-01-30T04:59:27;69.85;;;28.92;;
60086;SDS011;45960;53.630;55.972;2024-01-30T05:00:28;71.38;;;30.30;;
60086;SDS011;45960;53.630;55.972;2024-01-30T05:01:29;69.78;;;29.23;;
60086;SDS011;45960;53.630;55.972;2024-01-30T05:02:30;90.28;;;31.58;;
60086;SDS011;45960;53.630;55.972;2024-01-30T05:03:34;69.13;;;25.77;;
60086;SDS011;45960;53.630;55.972;2024-01-30T05:04:35;73.68;;;29.55;;
60086;SDS011;45960;53.630;55.972;2024-01-30T05:05:36;74.88;;;29.50;;
60086;SDS011;45960;53.630;55.972;2024-01-30T05:06:37;78.65;;;29.98;;
60086;SDS011;45960;53.630;55.972;2024-01-30T05:07:38;74.90;;;31.60;;
60086;SDS011;45960;53.630;55.972;2024-01-30T05:08:41;82.70;;;30.23;;
60086;SDS011;45960;53.630;55.972;2024-01-30T05:09:42;69.80;;;28.15;;
60086;SDS011;45960;53.630;55.972;2024-01-30T05:10:44;77.93;;;28.58;;
60086;SDS011;45960;53.630;55.972;2024-01-30T05:11:45;74.60;;;29.13;;
60086;SDS011;45960;53.630;55.972;2024-01-30T05:12:46;74.00;;;29.23;;
60086;SDS011;45960;53.630;55.972;2024-01-30T05:13:47;82.80;;;29.95;;
60086;SDS011;45960;53.630;55.972;2024-01-30T05:14:48;67.55;;;28.67;;
60086;SDS011;45960;53.630;55.972;2024-01-30T05:15:49;71.88;;;28.48;;
60086;SDS011;45960;53.630;55.972;2024-01-30T05:16:49;74.32;;;29.50;;
60086;SDS011;45960;53.630;55.972;2024-01-30T05:17:50;72.70;;;28.17;;
60086;SDS011;45960;53.630;55.972;2024-01-30T05:18:51;67.30;;;28.02;;
60086;SDS011;45960;53.630;55.972;2024-01-30T05:19:52;64.88;;;27.48;;
60086;SDS011;45960;53.630;55.972;2024-01-30T05:20:53;80.00;;;29.85;;
60086;SDS011;45960;53.630;55.972;2024-01-30T05:21:54;67.32;;;28.60;;
60086;SDS011;45960;53.630;55.972;2024-01-30T05:22:55;71.85;;;28.73;;
60086;SDS011;45960;53.630;55.972;2024-01-30T05:23:56;76.53;;;29.83;;
60086;SDS011;45960;53.630;55.972;2024-01-30T05:24:57;82.10;;;30.27;;
60086;SDS011;45960;53.630;55.972;2024-01-30T05:25:59;75.88;;;28.85;;
60086;SDS011;45960;53.630;55.972;2024-01-30T05:27:01;88.95;;;34.70;;
60086;SDS011;45960;53.630;55.972;2024-01-30T05:28:03;65.90;;;27.40;;
60086;SDS011;45960;53.630;55.972;2024-01-30T05:29:04;84.30;;;32.78;;
60086;SDS011;45960;53.630;55.972;2024-01-30T05:30:06;74.70;;;30.25;;
60086;SDS011;45960;53.630;55.972;2024-01-30T05:31:08;76.38;;;31.00;;
60086;SDS011;45960;53.630;55.972;2024-01-30T05:32:09;77.43;;;28.65;;
60086;SDS011;45960;53.630;55.972;2024-01-30T05:33:11;67.18;;;29.15;;
60086;SDS011;45960;53.630;55.972;2024-01-30T05:34:12;78.22;;;29.80;;
60086;SDS011;45960;53.630;55.972;2024-01-30T05:35:13;84.25;;;31.45;;
60086;SDS011;45960;53.630;55.972;2024-01-30T05:36:14;73.53;;;28.15;;
60086;SDS011;45960;53.630;55.972;2024-01-30T05:37:15;74.43;;;29.80;;
60086;SDS011;45960;53.630;55.972;2024-01-30T05:38:18;81.00;;;27.27;;
60086;SDS011;45960;53.630;55.972;2024-01-30T05:39:19;73.65;;;27.95;;
60086;SDS011;45960;53.630;55.972;2024-01-30T05:40:20;76.35;;;29.92;;
60086;SDS011;45960;53.630;55.972;2024-01-30T05:41:21;80.30;;;32.38;;
60086;SDS011;45960;53.630;55.972;2024-01-30T05:42:22;67.63;;;25.67;;
60086;SDS011;45960;53.630;55.972;2024-01-30T05:43:23;68.80;;;28.38;;
60086;SDS011;45960;53.630;55.972;2024-01-30T05:44:24;64.10;;;25.45;;
60086;SDS011;45960;53.630;55.972;2024-01-30T05:45:25;69.47;;;26.13;;
60086;SDS011;45960;53.630;55.972;2024-01-30T05:46:27;66.05;;;26.17;;
60086;SDS011;45960;53.630;55.972;2024-01-30T05:47:28;60.60;;;25.73;;
60086;SDS011;45960;53.630;55.972;2024-01-30T05:48:29;71.35;;;28.30;;
60086;SDS011;45960;53.630;55.972;2024-01-30T05:49:31;73.47;;;28.58;;
60086;SDS011;45960;53.630;55.972;2024-01-30T05:50:32;70.10;;;27.50;;
60086;SDS011;45960;53.630;55.972;2024-01-30T05:51:33;66.47;;;26.55;;
60086;SDS011;45960;53.630;55.972;2024-01-30T05:52:34;64.53;;;28.20;;
60086;SDS011;45960;53.630;55.972;2024-01-30T05:53:35;58.03;;;24.33;;
60086;SDS011;45960;53.630;55.972;2024-01-30T05:54:36;68.93;;;26.17;;